createdAt,value
2023-01-24T00:01:29.303Z,103865.84
2023-01-24T00:03:57.162Z,103869.69
2023-01-24T00:06:25.104Z,103860.34
2023-01-24T00:08:52.886Z,103868.91
2023-01-24T00:11:20.677Z,103870.81
2023-01-24T00:13:48.640Z,103861.44
2023-01-24T00:16:18.095Z,103863.69
2023-01-24T00:18:48.652Z,103865.28
2023-01-24T00:21:18.882Z,103858.75
2023-01-24T00:23:48.627Z,103851.44
2023-01-24T00:26:17.724Z,103853.69
2023-01-24T00:28:47.686Z,103851.78
2023-01-24T00:31:16.529Z,103847.16
2023-01-24T00:33:44.617Z,103850.06
2023-01-24T00:36:14.412Z,103851.50
2023-01-24T00:38:42.355Z,103854.22
2023-01-24T00:41:10.367Z,103855.00
2023-01-24T00:43:38.266Z,103853.91
2023-01-24T00:46:07.670Z,103855.34
2023-01-24T00:48:35.919Z,103854.22
2023-01-24T00:51:03.756Z,103848.69
2023-01-24T00:53:33.052Z,103847.44
2023-01-24T00:56:00.956Z,103850.28
2023-01-24T00:58:28.796Z,103847.09
2023-01-24T01:00:57.880Z,103847.56
2023-01-24T01:03:25.896Z,103842.97
2023-01-24T01:05:59.974Z,103846.44
2023-01-24T01:08:27.885Z,103842.28
2023-01-24T01:10:57.038Z,103838.94
2023-01-24T01:13:25.283Z,103839.72
2023-01-24T01:15:53.189Z,103838.13
2023-01-24T01:18:21.024Z,103839.47
2023-01-24T01:20:52.631Z,103842.84
2023-01-24T01:23:20.468Z,103836.31
2023-01-24T01:25:48.298Z,103837.75
2023-01-24T01:28:17.528Z,103836.53
2023-01-24T01:30:45.402Z,103841.25
2023-01-24T01:33:14.290Z,103838.53
2023-01-24T01:35:42.026Z,103836.97
2023-01-24T01:38:09.798Z,103829.53
2023-01-24T01:40:37.557Z,103837.63
2023-01-24T01:43:05.353Z,103827.50
2023-01-24T01:45:40.778Z,103831.44
2023-01-24T01:48:20.750Z,103826.81
2023-01-24T01:50:53.964Z,103821.44
2023-01-24T01:53:23.955Z,103830.44
2023-01-24T01:55:57.227Z,103828.88
2023-01-24T01:58:25.288Z,103817.63
2023-01-24T02:00:54.444Z,103828.75
2023-01-24T02:03:41.876Z,103826.50
2023-01-24T02:06:24.093Z,103827.75
2023-01-24T02:08:53.485Z,103831.59
2023-01-24T02:11:38.887Z,103822.69
2023-01-24T02:14:26.694Z,103826.66
2023-01-24T02:16:56.097Z,103822.50
2023-01-24T02:19:49.465Z,103829.00
2023-01-24T02:22:24.584Z,103825.53
2023-01-24T02:25:02.899Z,103823.59
2023-01-24T02:27:32.149Z,103819.34
2023-01-24T02:30:00.520Z,103835.53
2023-01-24T02:32:28.448Z,103824.94
2023-01-24T02:34:56.901Z,103829.22
2023-01-24T02:37:26.810Z,103828.53
2023-01-24T02:39:59.824Z,103823.81
2023-01-24T02:42:34.628Z,103817.94
2023-01-24T02:45:10.580Z,103822.88
2023-01-24T02:47:42.341Z,103834.81
2023-01-24T02:50:11.375Z,103824.34
2023-01-24T02:52:56.622Z,103827.69
2023-01-24T02:55:26.063Z,103823.28
2023-01-24T02:58:09.496Z,103818.09
2023-01-24T03:00:40.832Z,103818.88
2023-01-24T03:03:10.863Z,103814.72
2023-01-24T03:05:57.561Z,103812.81
2023-01-24T03:08:33.324Z,103825.53
2023-01-24T03:11:03.548Z,103814.28
2023-01-24T03:13:51.970Z,103808.75
2023-01-24T03:16:37.762Z,103808.28
2023-01-24T03:19:23.511Z,103810.53
2023-01-24T03:22:09.037Z,103804.00
2023-01-24T03:24:55.878Z,103799.75
2023-01-24T03:27:40.990Z,103805.91
2023-01-24T03:30:29.831Z,103803.38
2023-01-24T03:33:19.404Z,103802.56
2023-01-24T03:35:54.536Z,103807.16
2023-01-24T03:38:42.997Z,103809.06
2023-01-24T03:41:11.738Z,103804.00
2023-01-24T03:43:41.106Z,103803.09
2023-01-24T03:46:11.925Z,103814.22
2023-01-24T03:48:47.773Z,103808.81
2023-01-24T03:51:33.074Z,103810.56
2023-01-24T03:54:01.417Z,103816.03
2023-01-24T03:56:37.409Z,103819.84
2023-01-24T03:59:06.333Z,103816.38
2023-01-24T04:01:38.349Z,103820.63
2023-01-24T04:04:21.163Z,103820.78
2023-01-24T04:06:48.959Z,103823.47
2023-01-24T04:09:17.378Z,103824.09
2023-01-24T04:11:45.746Z,103816.16
2023-01-24T04:14:18.716Z,103819.66
2023-01-24T04:17:04.984Z,103816.94
2023-01-24T04:19:41.197Z,103812.97
2023-01-24T04:22:09.399Z,103822.97
2023-01-24T04:24:39.717Z,103813.94
2023-01-24T04:27:07.614Z,103817.75
2023-01-24T04:29:56.078Z,103825.38
2023-01-24T04:32:25.290Z,103829.66
2023-01-24T04:35:00.591Z,103820.78
2023-01-24T04:37:45.340Z,103830.31
2023-01-24T04:40:15.821Z,103825.25
2023-01-24T04:42:44.363Z,103832.75
2023-01-24T04:45:13.249Z,103834.63
2023-01-24T04:47:42.858Z,103832.59
2023-01-24T04:50:12.014Z,103823.72
2023-01-24T04:52:39.842Z,103835.16
2023-01-24T04:55:10.998Z,103832.31
2023-01-24T04:57:39.446Z,103843.56
2023-01-24T05:00:10.408Z,103832.31
2023-01-24T05:02:39.296Z,103833.75
2023-01-24T05:05:10.440Z,103845.97
2023-01-24T05:07:38.815Z,103839.63
2023-01-24T05:10:12.517Z,103840.56
2023-01-24T05:12:40.490Z,103844.03
2023-01-24T05:15:15.209Z,103844.94
2023-01-24T05:17:45.052Z,103846.84
2023-01-24T05:20:18.595Z,103844.81
2023-01-24T05:22:47.892Z,103840.88
2023-01-24T05:25:16.777Z,103843.56
2023-01-24T05:27:45.738Z,103844.66
2023-01-24T05:30:15.702Z,103845.63
2023-01-24T05:32:44.725Z,103854.69
2023-01-24T05:35:12.550Z,103850.44
2023-01-24T05:37:41.937Z,103851.22
2023-01-24T05:40:12.314Z,103852.47
2023-01-24T05:42:43.082Z,103857.84
2023-01-24T05:45:13.072Z,103852.34
2023-01-24T05:47:41.340Z,103856.28
2023-01-24T05:50:12.388Z,103859.78
2023-01-24T05:52:41.684Z,103861.38
2023-01-24T05:55:09.934Z,103857.56
2023-01-24T05:57:41.013Z,103857.44
2023-01-24T06:00:31.450Z,103852.06
2023-01-24T06:03:17.765Z,103863.81
2023-01-24T06:05:50.390Z,103857.75
2023-01-24T06:08:21.625Z,103855.06
2023-01-24T06:10:50.341Z,103860.78
2023-01-24T06:13:20.173Z,103856.81
2023-01-24T06:15:48.043Z,103864.75
2023-01-24T06:18:19.624Z,103863.63
2023-01-24T06:20:51.141Z,103864.78
2023-01-24T06:23:26.106Z,103858.13
2023-01-24T06:25:58.288Z,103861.28
2023-01-24T06:28:26.702Z,103864.63
2023-01-24T06:31:03.846Z,103865.75
2023-01-24T06:33:53.388Z,103861.78
2023-01-24T06:36:32.431Z,103865.28
2023-01-24T06:39:02.289Z,103863.34
2023-01-24T06:41:30.493Z,103872.09
2023-01-24T06:43:58.680Z,103868.75
2023-01-24T06:46:26.691Z,103872.09
2023-01-24T06:48:54.488Z,103874.91
2023-01-24T06:51:22.291Z,103878.25
2023-01-24T06:53:50.033Z,103876.66
2023-01-24T06:56:19.156Z,103882.97
2023-01-24T06:58:46.919Z,103880.75
2023-01-24T07:01:14.828Z,103886.31
2023-01-24T07:03:42.631Z,103884.56
2023-01-24T07:06:10.451Z,103888.38
2023-01-24T07:08:38.222Z,103893.28
2023-01-24T07:11:06.131Z,103884.56
2023-01-24T07:13:35.321Z,103879.47
2023-01-24T07:16:03.731Z,103882.97
2023-01-24T07:18:32.010Z,103892.94
2023-01-24T07:21:00.351Z,103894.84
2023-01-24T07:23:31.121Z,103898.38
2023-01-24T07:25:59.429Z,103893.28
2023-01-24T07:28:27.342Z,103899.03
2023-01-24T07:30:57.302Z,103896.34
2023-01-24T07:33:25.147Z,103898.72
2023-01-24T07:35:52.923Z,103900.59
2023-01-24T07:38:20.749Z,103904.25
2023-01-24T07:40:48.553Z,103910.09
2023-01-24T07:43:16.439Z,103907.25
2023-01-24T07:45:47.243Z,103915.50
2023-01-24T07:48:16.420Z,103920.28
2023-01-24T07:50:44.218Z,103922.81
2023-01-24T07:53:12.040Z,103924.13
2023-01-24T07:55:40.333Z,103924.91
2023-01-24T07:58:09.083Z,103926.34
2023-01-24T08:00:36.961Z,103919.22
2023-01-24T08:03:04.848Z,103916.50
2023-01-24T08:05:33.991Z,103921.91
2023-01-24T08:08:01.805Z,103915.25
2023-01-24T08:10:30.233Z,103923.81
2023-01-24T08:12:58.595Z,103919.69
2023-01-24T08:15:26.536Z,103921.56
2023-01-24T08:17:54.740Z,103925.06
2023-01-24T08:20:22.901Z,103932.34
2023-01-24T08:22:58.033Z,103926.50
2023-01-24T08:25:26.857Z,103930.13
2023-01-24T08:27:55.068Z,103933.75
2023-01-24T08:30:23.082Z,103935.50
2023-01-24T08:32:51.127Z,103936.75
2023-01-24T08:35:19.037Z,103935.66
2023-01-24T08:37:46.820Z,103936.63
2023-01-24T08:40:16.148Z,103938.97
2023-01-24T08:42:44.008Z,103946.88
2023-01-24T08:45:11.914Z,103957.66
2023-01-24T08:47:39.686Z,103951.19
2023-01-24T08:50:08.981Z,103945.94
2023-01-24T08:52:36.837Z,103960.53
2023-01-24T08:55:04.703Z,103956.22
2023-01-24T08:57:33.838Z,103966.03
2023-01-24T09:00:01.647Z,103970.50
2023-01-24T09:02:30.148Z,103958.91
2023-01-24T09:04:58.000Z,103964.94
2023-01-24T09:07:26.223Z,103962.56
2023-01-24T09:09:54.039Z,103959.38
2023-01-24T09:12:21.799Z,103957.00
2023-01-24T09:14:50.944Z,103957.63
2023-01-24T09:17:18.741Z,103964.13
2023-01-24T09:19:46.576Z,103971.59
2023-01-24T09:22:14.396Z,103978.06
2023-01-24T09:24:42.166Z,103967.75
2023-01-24T09:27:12.013Z,103977.41
2023-01-24T09:29:39.822Z,103974.88
2023-01-24T09:32:09.245Z,103985.19
2023-01-24T09:34:37.057Z,103977.09
2023-01-24T09:37:05.008Z,103986.44
2023-01-24T09:39:32.805Z,103983.16
2023-01-24T09:42:11.479Z,103982.81
2023-01-24T09:44:45.208Z,103986.75
2023-01-24T09:47:26.229Z,103989.44
2023-01-24T09:49:57.813Z,103990.22
2023-01-24T09:52:35.440Z,103986.25
2023-01-24T09:55:07.752Z,103987.50
2023-01-24T09:57:47.276Z,103984.16
2023-01-24T10:00:20.621Z,103988.13
2023-01-24T10:02:50.186Z,103996.22
2023-01-24T10:05:21.064Z,103998.13
2023-01-24T10:08:12.196Z,103991.47
2023-01-24T10:10:46.931Z,103995.28
2023-01-24T10:13:28.961Z,103981.03
2023-01-24T10:16:05.203Z,103990.84
2023-01-24T10:18:47.463Z,103990.84
2023-01-24T10:21:51.880Z,103981.63
2023-01-24T10:24:25.251Z,103991.75
2023-01-24T10:26:54.097Z,103992.72
2023-01-24T10:29:24.285Z,103997.97
2023-01-24T10:31:58.788Z,103987.78
2023-01-24T10:34:35.123Z,103992.22
2023-01-24T10:37:06.607Z,103998.41
2023-01-24T10:39:34.545Z,103981.81
2023-01-24T10:42:04.655Z,103984.69
2023-01-24T10:44:38.383Z,103982.28
2023-01-24T10:47:27.612Z,103979.13
2023-01-24T10:50:00.680Z,103980.72
2023-01-24T10:52:29.176Z,103979.78
2023-01-24T10:54:58.807Z,103971.19
2023-01-24T10:57:38.762Z,103963.91
2023-01-24T11:00:31.446Z,103961.34
2023-01-24T11:03:01.014Z,103969.09
2023-01-24T11:05:43.122Z,103962.44
2023-01-24T11:08:20.031Z,103959.22
2023-01-24T11:10:48.371Z,103958.78
2023-01-24T11:13:37.975Z,103961.91
2023-01-24T11:16:08.458Z,103956.84
2023-01-24T11:18:38.148Z,103965.06
2023-01-24T11:21:13.847Z,103950.53
2023-01-24T11:23:42.634Z,103945.78
2023-01-24T11:26:23.422Z,103943.72
2023-01-24T11:28:59.706Z,103945.91
2023-01-24T11:31:33.505Z,103942.13
2023-01-24T11:34:24.049Z,103940.88
2023-01-24T11:37:05.672Z,103940.56
2023-01-24T11:39:43.865Z,103940.09
2023-01-24T11:42:19.147Z,103933.09
2023-01-24T11:45:09.697Z,103928.34
2023-01-24T11:47:45.788Z,103934.81
2023-01-24T11:50:34.276Z,103938.56
2023-01-24T11:53:21.195Z,103926.97
2023-01-24T11:55:56.725Z,103931.69
2023-01-24T11:58:46.015Z,103925.66
2023-01-24T12:01:23.644Z,103926.47
2023-01-24T12:04:31.570Z,103915.78
2023-01-24T12:07:08.276Z,103904.22
2023-01-24T12:09:45.249Z,103903.59
2023-01-24T12:12:19.383Z,103909.16
2023-01-24T12:15:14.914Z,103898.94
2023-01-24T12:18:24.779Z,103899.69
2023-01-24T12:21:01.154Z,103899.50
2023-01-24T12:23:37.825Z,103892.09
2023-01-24T12:26:15.474Z,103892.00
2023-01-24T12:28:51.687Z,103883.31
2023-01-24T12:31:30.015Z,103891.25
2023-01-24T12:34:03.546Z,103888.88
2023-01-24T12:36:38.210Z,103886.44
2023-01-24T12:39:15.984Z,103889.28
2023-01-24T12:41:51.257Z,103883.56
2023-01-24T12:44:29.947Z,103881.66
2023-01-24T12:47:18.617Z,103879.03
2023-01-24T12:49:55.282Z,103872.44
2023-01-24T12:52:29.842Z,103863.56
2023-01-24T12:55:03.799Z,103869.88
2023-01-24T12:57:39.941Z,103867.81
2023-01-24T13:00:17.606Z,103860.78
2023-01-24T13:03:11.419Z,103865.84
2023-01-24T13:05:49.614Z,103855.25
2023-01-24T13:08:30.559Z,103851.72
2023-01-24T13:11:16.856Z,103848.34
2023-01-24T13:13:53.057Z,103846.59
2023-01-24T13:16:37.550Z,103845.81
2023-01-24T13:19:19.298Z,103849.53
2023-01-24T13:21:54.215Z,103854.31
2023-01-24T13:24:35.860Z,103851.78
2023-01-24T13:27:18.564Z,103852.91
2023-01-24T13:30:14.302Z,103854.94
2023-01-24T13:32:42.634Z,103848.88
2023-01-24T13:35:17.897Z,103844.84
2023-01-24T13:37:52.588Z,103849.22
2023-01-24T13:40:26.135Z,103847.41
2023-01-24T13:42:54.341Z,103848.81
2023-01-24T13:45:51.975Z,103843.88
2023-01-24T13:48:46.249Z,103853.63
2023-01-24T13:51:45.829Z,103846.84
2023-01-24T13:54:35.466Z,103845.59
2023-01-24T13:57:21.250Z,103843.09
2023-01-24T14:00:03.713Z,103841.19
2023-01-24T14:02:44.224Z,103840.16
2023-01-24T14:05:44.085Z,103849.88
2023-01-24T14:08:35.762Z,103838.97
2023-01-24T14:11:39.954Z,103840.06
2023-01-24T14:14:36.863Z,103841.78
2023-01-24T14:17:44.313Z,103837.34
2023-01-24T14:20:23.880Z,103835.66
2023-01-24T14:22:56.007Z,103840.00
2023-01-24T14:25:50.424Z,103839.69
2023-01-24T14:28:27.906Z,103841.56
2023-01-24T14:30:59.425Z,103842.09
2023-01-24T14:33:35.955Z,103840.31
2023-01-24T14:36:18.110Z,103834.13
2023-01-24T14:38:45.879Z,103834.13
2023-01-24T14:41:22.703Z,103832.09
2023-01-24T14:43:51.875Z,103837.63
2023-01-24T14:46:24.512Z,103831.31
2023-01-24T14:48:52.727Z,103837.50
2023-01-24T14:51:25.892Z,103836.72
2023-01-24T14:53:55.179Z,103840.50
2023-01-24T14:56:23.501Z,103837.22
2023-01-24T14:58:53.872Z,103840.38
2023-01-24T15:01:27.528Z,103848.81
2023-01-24T15:03:57.469Z,103851.66
2023-01-24T15:06:28.784Z,103853.22
2023-01-24T15:08:57.046Z,103851.31
2023-01-24T15:11:30.257Z,103843.47
2023-01-24T15:14:01.894Z,103846.31
2023-01-24T15:16:37.098Z,103843.00
2023-01-24T15:19:08.050Z,103844.19
2023-01-24T15:21:40.561Z,103846.28
2023-01-24T15:24:21.720Z,103843.44
2023-01-24T15:26:49.980Z,103848.84
2023-01-24T15:29:51.414Z,103843.69
2023-01-24T15:32:31.198Z,103850.69
2023-01-24T15:35:41.433Z,103839.50
2023-01-24T15:38:27.587Z,103847.47
2023-01-24T15:40:59.189Z,103853.44
2023-01-24T15:43:48.632Z,103846.28
2023-01-24T15:46:37.857Z,103845.84
2023-01-24T15:49:32.079Z,103849.19
2023-01-24T15:52:06.918Z,103848.84
2023-01-24T15:54:37.083Z,103854.59
2023-01-24T15:57:07.906Z,103847.78
2023-01-24T15:59:36.614Z,103852.72
2023-01-24T16:02:04.394Z,103856.84
2023-01-24T16:04:33.703Z,103853.69
2023-01-24T16:07:01.475Z,103857.16
2023-01-24T16:09:29.257Z,103861.47
2023-01-24T16:12:01.226Z,103856.19
2023-01-24T16:14:30.123Z,103858.56
2023-01-24T16:17:02.825Z,103864.16
2023-01-24T16:19:30.669Z,103864.63
2023-01-24T16:21:58.778Z,103863.69
2023-01-24T16:24:26.780Z,103866.38
2023-01-24T16:26:56.055Z,103860.25
2023-01-24T16:29:28.983Z,103857.22
2023-01-24T16:31:57.116Z,103857.53
2023-01-24T16:34:25.480Z,103859.13
2023-01-24T16:36:53.288Z,103858.84
2023-01-24T16:39:22.882Z,103849.66
2023-01-24T16:41:52.481Z,103842.66
2023-01-24T16:44:20.455Z,103853.63
2023-01-24T16:46:51.800Z,103849.69
2023-01-24T16:49:19.886Z,103848.56
2023-01-24T16:51:48.473Z,103850.03
2023-01-24T16:54:16.598Z,103849.75
2023-01-24T16:56:46.037Z,103845.28
2023-01-24T16:59:14.020Z,103848.16
2023-01-24T17:01:42.309Z,103842.78
2023-01-24T17:04:12.524Z,103849.75
2023-01-24T17:06:40.325Z,103844.03
2023-01-24T17:09:09.611Z,103846.25
2023-01-24T17:11:37.479Z,103842.78
2023-01-24T17:14:05.263Z,103841.97
2023-01-24T17:16:33.056Z,103849.06
2023-01-24T17:19:02.677Z,103849.06
2023-01-24T17:21:31.903Z,103848.72
2023-01-24T17:23:59.721Z,103846.97
2023-01-24T17:26:27.502Z,103837.66
2023-01-24T17:28:55.419Z,103841.31
2023-01-24T17:31:23.275Z,103845.13
2023-01-24T17:33:51.551Z,103852.09
2023-01-24T17:36:19.549Z,103855.44
2023-01-24T17:38:49.055Z,103855.16
2023-01-24T17:41:18.469Z,103861.50
2023-01-24T17:43:52.887Z,103857.25
2023-01-24T17:46:21.497Z,103854.38
2023-01-24T17:48:49.355Z,103863.56
2023-01-24T17:51:18.781Z,103855.94
2023-01-24T17:53:48.781Z,103861.34
2023-01-24T17:56:18.466Z,103853.72
2023-01-24T17:58:46.708Z,103867.50
2023-01-24T18:01:15.718Z,103863.38
2023-01-24T18:03:45.794Z,103857.53
2023-01-24T18:06:14.380Z,103861.22
2023-01-24T18:08:42.303Z,103873.25
2023-01-24T18:11:13.565Z,103874.19
2023-01-24T18:13:42.301Z,103874.69
2023-01-24T18:16:12.969Z,103865.00
2023-01-24T18:18:41.735Z,103866.28
2023-01-24T18:21:10.996Z,103863.13
2023-01-24T18:23:39.216Z,103867.41
2023-01-24T18:26:08.065Z,103865.53
2023-01-24T18:28:37.948Z,103857.59
2023-01-24T18:31:10.857Z,103857.75
2023-01-24T18:33:39.712Z,103857.94
2023-01-24T18:36:09.312Z,103864.41
2023-01-24T18:38:37.256Z,103857.47
2023-01-24T18:41:06.169Z,103864.44
2023-01-24T18:43:34.280Z,103859.06
2023-01-24T18:46:08.938Z,103859.69
2023-01-24T18:48:38.761Z,103860.97
2023-01-24T18:51:07.474Z,103855.91
2023-01-24T18:53:35.498Z,103853.22
2023-01-24T18:56:06.276Z,103860.50
2023-01-24T18:58:36.046Z,103855.25
2023-01-24T19:01:12.831Z,103851.31
2023-01-24T19:03:41.032Z,103857.03
2023-01-24T19:06:09.575Z,103847.66
2023-01-24T19:08:48.641Z,103851.00
2023-01-24T19:11:25.144Z,103846.38
2023-01-24T19:13:53.974Z,103851.78
2023-01-24T19:16:23.913Z,103856.84
2023-01-24T19:18:52.734Z,103855.28
2023-01-24T19:21:21.628Z,103851.63
2023-01-24T19:23:50.906Z,103866.03
2023-01-24T19:26:19.740Z,103864.94
2023-01-24T19:28:47.817Z,103859.69
2023-01-24T19:31:15.751Z,103857.81
2023-01-24T19:33:44.974Z,103849.56
2023-01-24T19:36:12.747Z,103857.47
2023-01-24T19:38:40.610Z,103855.25
2023-01-24T19:41:09.870Z,103853.34
2023-01-24T19:43:39.727Z,103857.63
2023-01-24T19:46:12.019Z,103858.25
2023-01-24T19:48:40.950Z,103862.22
2023-01-24T19:51:12.292Z,103861.41
2023-01-24T19:53:40.322Z,103867.63
2023-01-24T19:56:10.981Z,103864.09
2023-01-24T19:58:39.157Z,103856.19
2023-01-24T20:01:07.709Z,103859.19
2023-01-24T20:03:37.413Z,103865.34
2023-01-24T20:06:12.822Z,103862.97
2023-01-24T20:08:44.874Z,103859.69
2023-01-24T20:11:13.128Z,103855.84
2023-01-24T20:13:41.463Z,103855.25
2023-01-24T20:16:14.690Z,103857.59
2023-01-24T20:18:42.670Z,103858.25
2023-01-24T20:21:13.372Z,103854.16
2023-01-24T20:23:41.220Z,103854.00
2023-01-24T20:26:11.634Z,103852.41
2023-01-24T20:28:40.770Z,103848.91
2023-01-24T20:31:11.637Z,103862.25
2023-01-24T20:33:40.039Z,103863.84
2023-01-24T20:36:10.188Z,103857.63
2023-01-24T20:38:40.284Z,103863.19
2023-01-24T20:41:10.424Z,103867.28
2023-01-24T20:43:39.052Z,103870.44
2023-01-24T20:46:08.804Z,103864.44
2023-01-24T20:48:38.378Z,103870.31
2023-01-24T20:51:08.006Z,103870.31
2023-01-24T20:53:36.277Z,103871.25
2023-01-24T20:56:07.330Z,103866.06
2023-01-24T20:58:35.914Z,103865.41
2023-01-24T21:01:05.060Z,103864.94
2023-01-24T21:03:33.085Z,103859.25
2023-01-24T21:06:05.076Z,103858.75
2023-01-24T21:08:34.430Z,103858.75
2023-01-24T21:11:03.056Z,103851.94
2023-01-24T21:13:40.858Z,103859.84
2023-01-24T21:16:10.147Z,103849.09
2023-01-24T21:18:38.092Z,103842.75
2023-01-24T21:21:06.464Z,103848.44
2023-01-24T21:23:34.321Z,103841.78
2023-01-24T21:26:05.740Z,103839.28
2023-01-24T21:28:35.616Z,103836.28
2023-01-24T21:31:05.228Z,103835.50
2023-01-24T21:33:33.362Z,103834.06
2023-01-24T21:36:02.069Z,103841.03
2023-01-24T21:38:30.665Z,103845.13
2023-01-24T21:41:19.746Z,103837.06
2023-01-24T21:43:48.944Z,103849.25
2023-01-24T21:46:17.489Z,103841.03
2023-01-24T21:49:03.626Z,103840.56
2023-01-24T21:51:32.253Z,103843.91
2023-01-24T21:54:07.361Z,103839.91
2023-01-24T21:56:55.524Z,103841.53
2023-01-24T21:59:26.707Z,103841.34
2023-01-24T22:01:57.529Z,103841.19
2023-01-24T22:04:26.754Z,103850.50
2023-01-24T22:06:55.357Z,103847.69
2023-01-24T22:09:23.460Z,103853.22
2023-01-24T22:11:54.270Z,103845.13
2023-01-24T22:14:27.191Z,103845.00
2023-01-24T22:16:57.500Z,103851.34
2023-01-24T22:19:27.738Z,103850.38
2023-01-24T22:22:16.803Z,103841.81
2023-01-24T22:24:59.224Z,103847.81
2023-01-24T22:27:27.649Z,103839.44
2023-01-24T22:29:57.663Z,103840.09
2023-01-24T22:32:26.188Z,103829.94
2023-01-24T22:34:57.603Z,103835.31
2023-01-24T22:37:28.611Z,103830.28
2023-01-24T22:39:56.816Z,103835.97
2023-01-24T22:42:25.240Z,103832.94
2023-01-24T22:44:53.661Z,103825.03
2023-01-24T22:47:22.943Z,103820.31
2023-01-24T22:49:50.813Z,103815.69
2023-01-24T22:52:18.630Z,103811.44
2023-01-24T22:54:46.377Z,103818.88
2023-01-24T22:57:14.224Z,103817.44
2023-01-24T22:59:42.003Z,103798.47
2023-01-24T23:02:09.909Z,103802.44
2023-01-24T23:04:39.600Z,103795.94
2023-01-24T23:07:07.771Z,103784.09
2023-01-24T23:09:35.710Z,103787.72
2023-01-24T23:12:03.527Z,103795.31
2023-01-24T23:14:48.745Z,103779.66
2023-01-24T23:17:18.501Z,103782.50
2023-01-24T23:20:06.130Z,103775.84
2023-01-24T23:22:35.813Z,103782.97
2023-01-24T23:25:05.954Z,103775.84
2023-01-24T23:27:36.447Z,103777.59
2023-01-24T23:30:45.582Z,103768.72
2023-01-24T23:33:35.213Z,103770.47
2023-01-24T23:36:04.466Z,103772.69
2023-01-24T23:38:32.313Z,103772.84
2023-01-24T23:41:00.239Z,103767.16
2023-01-24T23:43:28.033Z,103771.09
2023-01-24T23:45:55.893Z,103766.69
2023-01-24T23:48:23.860Z,103767.94
2023-01-24T23:50:56.049Z,103773.81
2023-01-24T23:53:25.463Z,103769.53
2023-01-24T23:55:53.306Z,103758.47
2023-01-24T23:58:21.484Z,103759.41
